Time;durP1;ratioP1;P1;durP2;ratioP2;P2;SDS_P1;SDS_P2;PMS_P1;PMS_P2;Temp;Humidity;BMP_temperature;BMP_pressure;BME280_temperature;BME280_humidity;BME280_pressure;Samples;Min_cycle;Max_cycle;Signal;HPM_P1;HPM_P2
2022/01/17 00:01:04;;;;;;;13.32;2.13;;;5.50;99.90;;;;;;5096491;28;20031;-85
2022/01/17 00:03:29;;;;;;;16.48;2.53;;;5.40;99.90;;;;;;5113516;28;20441;-85
2022/01/17 00:05:55;;;;;;;18.02;3.45;;;5.40;99.90;;;;;;5113835;28;20119;-85
2022/01/17 00:08:21;;;;;;;23.05;3.20;;;5.30;99.90;;;;;;5113475;28;20471;-85
2022/01/17 00:10:47;;;;;;;20.75;3.00;;;5.30;99.90;;;;;;5104433;27;20027;-85
2022/01/17 00:13:24;;;;;;;18.80;2.60;;;5.30;99.90;;;;;;5130716;27;20065;-85
2022/01/17 00:15:56;;;;;;;11.50;2.17;;;5.30;99.90;;;;;;5130174;27;20483;-85
2022/01/17 00:20:47;;;;;;;20.13;2.72;;;5.40;99.90;;;;;;5119755;27;20063;-85
2022/01/17 00:23:17;;;;;;;14.27;2.28;;;5.40;99.90;;;;;;5115410;27;20030;-84
2022/01/17 00:25:42;;;;;;;14.75;2.40;;;5.40;99.90;;;;;;5132097;27;20114;-85
2022/01/17 00:28:08;;;;;;;14.23;2.65;;;5.40;99.90;;;;;;5104080;27;20611;-85
2022/01/17 00:30:34;;;;;;;14.43;2.42;;;5.40;99.90;;;;;;5133677;27;20042;-85
2022/01/17 00:32:59;;;;;;;18.67;3.17;;;5.40;99.90;;;;;;5135165;27;20034;-84
2022/01/17 00:35:25;;;;;;;15.07;2.00;;;5.40;99.90;;;;;;5113957;27;20453;-84
2022/01/17 00:37:52;;;;;;;12.68;2.10;;;5.40;99.90;;;;;;5113914;27;20075;-85
2022/01/17 00:40:18;;;;;;;15.82;3.08;;;5.40;99.90;;;;;;5117886;27;20101;-84
2022/01/17 00:42:44;;;;;;;12.57;1.92;;;5.30;99.90;;;;;;5117670;27;20050;-84
2022/01/17 00:45:13;;;;;;;16.23;2.30;;;5.40;99.90;;;;;;5136809;27;20437;-84
2022/01/17 00:47:39;;;;;;;11.80;2.40;;;5.50;99.90;;;;;;5099514;27;20035;-85
2022/01/17 00:50:06;;;;;;;12.77;2.28;;;5.50;99.90;;;;;;5103058;27;20057;-84
2022/01/17 00:52:31;;;;;;;17.02;2.97;;;5.50;99.90;;;;;;5121404;27;20035;-85
2022/01/17 00:54:57;;;;;;;15.50;2.67;;;5.50;99.90;;;;;;5137120;27;20046;-84
2022/01/17 00:57:23;;;;;;;17.05;3.13;;;5.50;99.90;;;;;;5118779;27;20046;-86
2022/01/17 00:59:48;;;;;;;13.98;2.70;;;5.40;99.90;;;;;;5116557;27;20031;-85
2022/01/17 01:02:14;;;;;;;14.50;2.40;;;5.40;99.90;;;;;;5125278;27;20040;-85
2022/01/17 01:04:39;;;;;;;15.48;3.22;;;5.30;99.90;;;;;;5122060;27;20042;-85
2022/01/17 01:07:05;;;;;;;14.80;2.45;;;5.20;99.90;;;;;;5118411;27;20449;-84
2022/01/17 01:09:36;;;;;;;18.40;3.65;;;5.20;99.90;;;;;;5121468;27;20054;-84
2022/01/17 01:12:02;;;;;;;14.00;2.38;;;5.20;99.90;;;;;;5101744;27;20070;-86
2022/01/17 01:14:28;;;;;;;18.45;2.50;;;5.20;99.90;;;;;;5109671;27;20042;-86
2022/01/17 01:16:56;;;;;;;13.32;2.22;;;5.20;99.90;;;;;;5120591;27;20027;-84
2022/01/17 01:19:38;;;;;;;16.58;2.65;;;5.20;99.90;;;;;;5133723;27;20038;-85
2022/01/17 01:27:42;;;;;;;17.50;2.45;;;5.20;99.90;;;;;;5132005;27;20099;-86
2022/01/17 01:30:12;;;;;;;13.57;2.35;;;5.20;99.90;;;;;;5088642;27;20437;-85
2022/01/17 01:32:47;;;;;;;12.43;1.88;;;5.20;99.90;;;;;;5119073;27;20110;-85
2022/01/17 01:35:15;;;;;;;18.08;2.63;;;5.20;99.90;;;;;;5112152;27;20039;-85
2022/01/17 01:37:44;;;;;;;16.30;2.92;;;5.20;99.90;;;;;;5118518;27;20035;-85
2022/01/17 01:40:11;;;;;;;14.85;2.15;;;5.20;99.90;;;;;;5115810;27;20050;-84
2022/01/17 01:42:36;;;;;;;14.27;2.08;;;5.20;99.90;;;;;;5118054;27;20043;-84
2022/01/17 01:45:05;;;;;;;11.20;2.00;;;5.20;99.90;;;;;;5125019;27;20124;-84
2022/01/17 01:47:31;;;;;;;24.00;3.65;;;5.20;99.90;;;;;;5104757;27;20185;-84
2022/01/17 01:49:56;;;;;;;16.70;3.20;;;5.10;99.90;;;;;;5125422;27;20092;-84
2022/01/17 01:52:22;;;;;;;12.32;2.25;;;5.10;99.90;;;;;;5116589;27;20154;-84
2022/01/17 01:54:47;;;;;;;12.00;1.98;;;5.20;99.90;;;;;;5115357;27;20046;-84
2022/01/17 01:57:13;;;;;;;17.42;2.55;;;5.10;99.90;;;;;;5118898;27;20022;-85
2022/01/17 01:59:39;;;;;;;18.42;3.00;;;5.10;99.90;;;;;;5119866;27;20031;-85
2022/01/17 02:02:06;;;;;;;17.25;2.60;;;5.00;99.90;;;;;;5131242;27;20452;-84
2022/01/17 02:04:32;;;;;;;18.48;2.75;;;5.00;99.90;;;;;;5118287;27;20030;-85
2022/01/17 02:06:58;;;;;;;19.88;2.75;;;5.00;99.90;;;;;;5128959;27;20078;-85
2022/01/17 02:09:24;;;;;;;21.63;2.50;;;4.90;99.90;;;;;;5111408;27;20070;-84
2022/01/17 02:11:49;;;;;;;20.33;2.83;;;4.90;99.90;;;;;;5135675;27;20399;-85
2022/01/17 02:14:15;;;;;;;13.48;2.65;;;4.90;99.90;;;;;;5131083;27;20045;-85
2022/01/17 02:16:43;;;;;;;17.05;2.95;;;4.90;99.90;;;;;;5100373;27;20083;-84
2022/01/17 02:19:09;;;;;;;20.73;3.40;;;5.00;99.90;;;;;;5126419;27;20393;-84
2022/01/17 02:21:45;;;;;;;19.95;3.25;;;5.10;99.90;;;;;;5121585;27;20031;-85
2022/01/17 02:24:14;;;;;;;16.65;2.60;;;4.90;99.90;;;;;;5114679;27;20062;-85
2022/01/17 02:26:39;;;;;;;13.77;2.15;;;4.90;99.90;;;;;;5102863;27;20503;-84
2022/01/17 02:29:06;;;;;;;15.15;2.42;;;4.90;99.90;;;;;;5116239;27;20186;-84
2022/01/17 02:31:32;;;;;;;23.30;2.70;;;4.90;99.90;;;;;;5115254;27;20407;-84
2022/01/17 02:33:57;;;;;;;19.10;2.60;;;4.80;99.90;;;;;;5130842;27;20039;-85
2022/01/17 02:36:23;;;;;;;13.57;2.38;;;4.80;99.90;;;;;;5117177;27;20091;-84
2022/01/17 02:38:50;;;;;;;22.55;2.60;;;4.90;99.90;;;;;;5112000;27;20027;-85
2022/01/17 02:41:15;;;;;;;24.35;2.80;;;4.80;99.90;;;;;;5133283;27;20038;-85
2022/01/17 02:43:46;;;;;;;20.88;2.53;;;4.80;99.90;;;;;;5112115;27;20106;-85
2022/01/17 02:48:41;;;;;;;16.20;2.58;;;4.80;99.90;;;;;;5117084;27;20476;-84
2022/01/17 02:51:08;;;;;;;18.13;2.53;;;4.80;99.90;;;;;;5115232;27;20436;-84
2022/01/17 02:53:34;;;;;;;16.42;2.50;;;4.80;99.90;;;;;;5102667;27;20035;-86
2022/01/17 02:56:02;;;;;;;18.02;2.58;;;4.80;99.90;;;;;;5114076;27;20043;-85
2022/01/17 02:58:28;;;;;;;20.70;3.55;;;4.80;99.90;;;;;;5100298;27;20042;-84
2022/01/17 03:00:56;;;;;;;18.35;3.33;;;4.80;99.90;;;;;;5113983;27;20043;-84
2022/01/17 03:03:24;;;;;;;15.10;2.30;;;4.70;99.90;;;;;;5121798;27;20058;-84
2022/01/17 03:05:52;;;;;;;18.10;2.40;;;4.80;99.90;;;;;;5123485;27;20039;-84
2022/01/17 03:08:20;;;;;;;19.40;2.38;;;4.70;99.90;;;;;;5116156;27;20557;-84
2022/01/17 03:10:50;;;;;;;22.90;4.13;;;4.70;99.90;;;;;;5114380;28;20046;-85
2022/01/17 03:13:24;;;;;;;16.85;2.85;;;4.70;99.90;;;;;;5096992;28;20035;-84
2022/01/17 03:15:54;;;;;;;18.58;3.33;;;4.70;99.90;;;;;;5115069;28;20044;-85
2022/01/17 03:18:20;;;;;;;19.38;2.70;;;4.70;99.90;;;;;;5117347;27;20062;-84
2022/01/17 03:20:46;;;;;;;19.63;2.38;;;4.70;99.90;;;;;;5117374;28;20070;-85
2022/01/17 03:23:11;;;;;;;15.43;2.63;;;4.70;99.90;;;;;;5113968;28;20039;-85
2022/01/17 03:25:37;;;;;;;12.13;2.50;;;4.80;99.90;;;;;;5113977;27;20109;-85
2022/01/17 03:28:03;;;;;;;14.13;2.75;;;4.70;99.90;;;;;;5113127;28;20039;-84
2022/01/17 03:30:31;;;;;;;14.45;2.35;;;4.80;99.90;;;;;;5109646;27;20062;-85
2022/01/17 03:32:56;;;;;;;19.23;2.53;;;4.80;99.90;;;;;;5133210;27;20051;-85
2022/01/17 03:35:22;;;;;;;14.02;2.33;;;4.80;99.90;;;;;;5118642;28;20132;-84
2022/01/17 03:37:48;;;;;;;18.38;2.45;;;4.90;99.90;;;;;;5099709;27;20031;-85
2022/01/17 03:40:14;;;;;;;16.38;2.63;;;4.90;99.90;;;;;;5117603;27;20484;-84
2022/01/17 03:42:40;;;;;;;15.00;3.63;;;4.90;99.90;;;;;;5127704;28;20485;-84
2022/01/17 03:45:07;;;;;;;18.83;2.50;;;4.90;99.90;;;;;;5113824;28;20092;-84
2022/01/17 03:47:38;;;;;;;21.02;3.20;;;4.90;99.90;;;;;;5114369;27;20043;-85
2022/01/17 03:50:07;;;;;;;14.95;2.00;;;5.00;99.90;;;;;;5118252;27;20083;-84
2022/01/17 03:52:32;;;;;;;17.92;2.47;;;5.00;99.90;;;;;;5134594;27;20030;-85
2022/01/17 03:54:58;;;;;;;11.95;2.10;;;5.00;99.90;;;;;;5139459;27;20101;-85
2022/01/17 03:57:24;;;;;;;23.05;3.78;;;5.10;99.90;;;;;;5117446;27;20071;-84
2022/01/17 03:59:50;;;;;;;11.77;2.20;;;5.00;99.90;;;;;;5105025;27;20480;-85
2022/01/17 04:02:15;;;;;;;13.02;1.92;;;5.00;99.90;;;;;;5122772;27;20034;-84
2022/01/17 04:04:41;;;;;;;11.65;2.17;;;5.00;99.90;;;;;;5100740;27;20091;-85
2022/01/17 04:07:06;;;;;;;12.43;2.38;;;5.00;99.90;;;;;;5114696;27;20043;-85
2022/01/17 04:09:32;;;;;;;12.68;2.28;;;5.10;99.90;;;;;;5131233;27;20039;-85
2022/01/17 04:11:57;;;;;;;18.63;2.42;;;5.00;99.90;;;;;;5119122;27;20047;-85
2022/01/17 04:14:23;;;;;;;12.02;2.10;;;5.00;99.90;;;;;;5127885;27;20095;-85
2022/01/17 04:16:48;;;;;;;11.35;1.85;;;5.00;99.90;;;;;;5103687;28;20040;-85
2022/01/17 04:19:16;;;;;;;17.38;2.67;;;5.00;99.90;;;;;;5098897;27;20035;-85
2022/01/17 04:21:41;;;;;;;17.40;2.22;;;5.00;99.90;;;;;;5100061;27;20377;-86
2022/01/17 04:24:07;;;;;;;16.20;2.25;;;5.00;99.90;;;;;;5101039;27;20038;-84
2022/01/17 04:26:32;;;;;;;13.70;1.70;;;5.00;99.90;;;;;;5100186;27;20080;-85
2022/01/17 04:28:58;;;;;;;14.30;1.83;;;5.00;99.90;;;;;;5112578;27;20031;-85
2022/01/17 04:31:24;;;;;;;24.27;2.90;;;5.10;99.90;;;;;;5117320;27;20053;-86
2022/01/17 04:33:49;;;;;;;13.55;2.33;;;5.20;99.90;;;;;;5117483;27;20035;-86
2022/01/17 04:36:15;;;;;;;14.20;2.15;;;5.30;99.90;;;;;;5110828;28;20051;-85
2022/01/17 04:38:40;;;;;;;15.15;2.17;;;5.30;99.90;;;;;;5089806;27;20441;-84
2022/01/17 04:41:14;;;;;;;17.08;2.40;;;5.30;99.90;;;;;;5117346;27;20038;-84
2022/01/17 04:46:06;;;;;;;16.35;2.42;;;5.60;99.90;;;;;;5111766;27;20123;-84
2022/01/17 04:48:33;;;;;;;12.90;2.08;;;5.60;99.90;;;;;;5128111;27;20549;-86
2022/01/17 04:50:59;;;;;;;16.85;2.22;;;5.60;99.90;;;;;;5116272;27;20050;-86
2022/01/17 04:53:26;;;;;;;18.80;2.83;;;5.70;99.90;;;;;;5115714;27;20031;-85
2022/01/17 04:55:52;;;;;;;10.05;1.95;;;5.60;99.90;;;;;;5105616;27;20049;-85
2022/01/17 04:58:17;;;;;;;11.68;2.20;;;5.70;99.90;;;;;;5137308;27;20022;-85
2022/01/17 05:00:47;;;;;;;14.55;2.35;;;5.70;99.90;;;;;;5127027;27;20023;-85
2022/01/17 05:03:21;;;;;;;18.73;3.47;;;5.70;99.90;;;;;;5110773;27;20082;-86
2022/01/17 05:05:47;;;;;;;15.82;2.88;;;5.70;99.90;;;;;;5123342;27;20034;-85
2022/01/17 05:08:14;;;;;;;18.40;2.50;;;5.80;99.90;;;;;;5120060;27;20080;-86
2022/01/17 05:10:42;;;;;;;23.95;3.10;;;5.80;99.90;;;;;;5116698;27;20035;-85
2022/01/17 05:13:09;;;;;;;14.52;2.47;;;5.80;99.90;;;;;;5116087;27;20047;-84
2022/01/17 05:15:38;;;;;;;18.02;3.75;;;5.80;99.90;;;;;;5116128;27;20055;-85
2022/01/17 05:20:53;;;;;;;21.10;2.95;;;5.90;99.90;;;;;;5104166;27;20161;-85
2022/01/17 05:23:18;;;;;;;17.50;3.33;;;5.90;99.90;;;;;;5116741;27;20440;-85
2022/01/17 05:25:44;;;;;;;20.42;2.88;;;6.00;99.90;;;;;;5116124;27;20420;-85
2022/01/17 05:28:09;;;;;;;13.98;3.20;;;6.00;99.90;;;;;;5111375;27;20427;-85
2022/01/17 05:30:35;;;;;;;16.73;3.78;;;6.00;99.90;;;;;;5105322;27;20057;-85
2022/01/17 05:33:01;;;;;;;20.48;3.22;;;6.00;99.90;;;;;;5119223;27;20403;-84
2022/01/17 05:35:27;;;;;;;18.40;3.40;;;6.00;99.90;;;;;;5103344;27;20039;-84
2022/01/17 05:37:53;;;;;;;16.65;3.25;;;6.10;99.90;;;;;;5134640;27;20030;-84
2022/01/17 05:40:19;;;;;;;26.92;3.88;;;6.00;99.90;;;;;;5136146;27;20045;-85
2022/01/17 05:42:45;;;;;;;16.17;2.63;;;6.10;99.90;;;;;;5126585;27;20031;-85
2022/01/17 05:45:12;;;;;;;17.40;3.38;;;6.10;99.90;;;;;;5115923;27;20092;-84
2022/01/17 05:47:38;;;;;;;15.90;3.00;;;6.20;99.90;;;;;;5119443;27;20109;-85
2022/01/17 05:50:05;;;;;;;17.23;3.55;;;6.20;99.90;;;;;;5136005;27;20106;-84
2022/01/17 05:52:31;;;;;;;18.00;3.55;;;6.20;99.90;;;;;;5133018;27;20079;-84
2022/01/17 05:54:57;;;;;;;15.52;3.13;;;6.20;99.90;;;;;;5098592;27;20430;-85
2022/01/17 05:57:24;;;;;;;15.98;3.90;;;6.30;99.90;;;;;;5120509;27;20038;-85
2022/01/17 05:59:49;;;;;;;20.85;3.70;;;6.20;99.90;;;;;;5108162;27;20027;-85
2022/01/17 06:02:15;;;;;;;17.20;3.40;;;6.20;99.90;;;;;;5131655;27;20031;-83
2022/01/17 06:04:41;;;;;;;19.00;3.45;;;6.20;99.90;;;;;;5118507;27;20515;-85
2022/01/17 06:07:06;;;;;;;18.52;4.25;;;6.20;99.90;;;;;;5123506;27;20033;-84
2022/01/17 06:09:33;;;;;;;20.35;3.20;;;6.30;99.90;;;;;;5131124;27;20092;-84
2022/01/17 06:11:59;;;;;;;15.02;3.80;;;6.20;99.90;;;;;;5117800;27;20653;-83
2022/01/17 06:14:24;;;;;;;15.90;3.00;;;6.30;99.90;;;;;;5129753;27;20073;-82
2022/01/17 06:16:50;;;;;;;22.20;3.78;;;6.20;99.90;;;;;;5098146;27;20050;-84
2022/01/17 06:19:16;;;;;;;21.98;4.25;;;6.30;99.90;;;;;;5115392;27;20035;-84
2022/01/17 06:21:42;;;;;;;19.70;3.60;;;6.20;99.90;;;;;;5130051;27;20113;-85
2022/01/17 06:24:09;;;;;;;20.90;4.18;;;6.30;99.90;;;;;;5122275;27;20071;-84
2022/01/17 06:26:40;;;;;;;21.67;3.88;;;6.20;99.90;;;;;;5132999;27;20035;-84
2022/01/17 06:29:07;;;;;;;22.52;3.88;;;6.20;99.90;;;;;;5117323;27;20066;-84
2022/01/17 06:31:33;;;;;;;20.42;3.80;;;6.20;99.90;;;;;;5108665;27;20049;-84
2022/01/17 06:33:59;;;;;;;20.88;3.92;;;6.20;99.90;;;;;;5116114;27;20084;-85
2022/01/17 06:36:24;;;;;;;22.88;3.90;;;6.10;99.90;;;;;;5100286;27;20043;-83
2022/01/17 06:38:50;;;;;;;22.67;3.72;;;6.10;99.90;;;;;;5123942;27;20057;-85
2022/01/17 06:41:17;;;;;;;25.70;5.10;;;6.10;99.90;;;;;;5110362;27;20460;-85
2022/01/17 06:43:44;;;;;;;19.83;3.72;;;6.10;99.90;;;;;;5119654;27;20035;-84
2022/01/17 06:46:10;;;;;;;16.55;3.83;;;6.10;99.90;;;;;;5115527;27;20038;-85
2022/01/17 06:48:36;;;;;;;22.02;4.38;;;6.10;99.90;;;;;;5098499;27;20042;-84
2022/01/17 06:51:01;;;;;;;20.55;4.20;;;6.10;99.90;;;;;;5105635;27;20054;-85
2022/01/17 06:53:27;;;;;;;25.15;4.18;;;6.10;99.90;;;;;;5114940;27;20035;-85
2022/01/17 06:55:54;;;;;;;18.85;3.83;;;6.10;99.90;;;;;;5114621;27;20050;-85
2022/01/17 06:58:20;;;;;;;19.30;3.97;;;6.10;99.90;;;;;;5108545;27;20114;-85
2022/01/17 07:00:46;;;;;;;28.92;4.43;;;6.20;99.90;;;;;;5114618;27;20042;-84
2022/01/17 07:03:11;;;;;;;20.35;4.10;;;6.20;99.90;;;;;;5115949;27;20031;-84
2022/01/17 07:05:37;;;;;;;19.77;4.18;;;6.20;99.90;;;;;;5114223;27;20046;-84
2022/01/17 07:08:03;;;;;;;24.88;4.15;;;6.20;99.90;;;;;;5116554;27;20127;-85
2022/01/17 07:10:28;;;;;;;29.27;4.63;;;6.20;99.90;;;;;;5097590;28;20053;-85
2022/01/17 07:12:55;;;;;;;23.83;3.60;;;6.20;99.90;;;;;;5114555;27;20043;-85
2022/01/17 07:15:21;;;;;;;25.63;4.30;;;6.20;99.90;;;;;;5113963;28;20127;-85
2022/01/17 07:17:46;;;;;;;25.73;3.88;;;6.20;99.90;;;;;;5096601;28;20110;-84
2022/01/17 07:20:12;;;;;;;30.25;5.38;;;6.20;99.90;;;;;;5112168;28;20035;-82
2022/01/17 07:22:37;;;;;;;23.92;3.42;;;6.30;99.90;;;;;;5114200;28;20032;-86
2022/01/17 07:25:04;;;;;;;29.65;4.32;;;6.30;99.90;;;;;;5115307;27;20074;-86
2022/01/17 07:27:29;;;;;;;21.02;3.40;;;6.30;99.90;;;;;;5118764;27;20043;-85
2022/01/17 07:29:55;;;;;;;28.52;5.00;;;6.30;99.90;;;;;;5099870;27;20058;-86
2022/01/17 07:32:21;;;;;;;27.02;5.35;;;6.40;99.90;;;;;;5118692;27;20751;-84
2022/01/17 07:34:46;;;;;;;23.98;3.97;;;6.30;99.90;;;;;;5097059;28;20777;-84
2022/01/17 07:37:12;;;;;;;26.42;4.45;;;6.40;99.90;;;;;;5097886;28;20513;-84
2022/01/17 07:39:38;;;;;;;30.85;4.72;;;6.40;99.90;;;;;;5110843;27;20039;-84
2022/01/17 07:42:04;;;;;;;24.50;3.70;;;6.40;99.90;;;;;;5115938;27;20432;-84
2022/01/17 07:44:31;;;;;;;30.10;3.90;;;6.40;99.90;;;;;;5087320;27;20110;-84
2022/01/17 07:47:00;;;;;;;28.90;5.07;;;6.50;99.90;;;;;;5117574;27;20102;-84
2022/01/17 07:49:27;;;;;;;32.88;4.43;;;6.50;99.90;;;;;;5114421;27;20484;-84
2022/01/17 07:51:59;;;;;;;33.80;4.07;;;6.40;99.90;;;;;;5101303;27;20114;-84
2022/01/17 07:54:30;;;;;;;25.35;3.95;;;6.50;99.90;;;;;;5128023;27;20059;-84
2022/01/17 07:56:57;;;;;;;31.90;4.03;;;6.50;99.90;;;;;;5121919;27;20507;-83
2022/01/17 07:59:23;;;;;;;27.15;3.92;;;6.60;99.90;;;;;;5104197;27;20043;-83
2022/01/17 08:01:49;;;;;;;26.23;3.88;;;6.60;99.90;;;;;;5122650;27;20049;-83
2022/01/17 08:04:15;;;;;;;29.67;4.30;;;6.60;99.90;;;;;;5097436;28;20114;-84
2022/01/17 08:06:41;;;;;;;24.75;4.15;;;6.80;99.90;;;;;;5100906;28;20618;-84
2022/01/17 08:09:31;;;;;;;31.58;4.18;;;6.70;99.90;;;;;;5102954;27;20031;-84
2022/01/17 08:11:57;;;;;;;27.08;3.80;;;6.80;99.90;;;;;;5108966;27;20097;-84
2022/01/17 08:14:25;;;;;;;30.20;5.40;;;6.80;99.90;;;;;;5099941;27;20403;-83
2022/01/17 08:16:51;;;;;;;29.95;4.80;;;6.90;99.90;;;;;;5093255;27;20078;-85
2022/01/17 08:19:18;;;;;;;22.75;4.10;;;6.90;99.90;;;;;;5107317;27;20443;-84
2022/01/17 08:21:44;;;;;;;28.05;4.90;;;6.90;99.90;;;;;;5116790;27;20488;-84
2022/01/17 08:24:09;;;;;;;25.83;3.58;;;6.90;99.90;;;;;;5101459;27;20035;-84
2022/01/17 08:26:42;;;;;;;24.83;4.10;;;6.90;99.90;;;;;;5128440;27;20049;-84
2022/01/17 08:29:10;;;;;;;25.98;4.05;;;7.00;99.90;;;;;;5110246;27;20031;-84
2022/01/17 08:31:36;;;;;;;34.05;5.07;;;7.00;99.90;;;;;;5101165;27;20457;-84
2022/01/17 08:34:01;;;;;;;34.95;5.32;;;7.00;99.90;;;;;;5100639;27;20050;-84
2022/01/17 08:36:27;;;;;;;21.77;4.55;;;7.00;99.90;;;;;;5115815;28;20043;-83
2022/01/17 08:38:53;;;;;;;23.90;4.80;;;7.10;99.90;;;;;;5116810;27;20449;-84
2022/01/17 08:41:19;;;;;;;37.25;4.30;;;7.10;99.90;;;;;;5114226;27;20041;-83
2022/01/17 08:43:46;;;;;;;22.88;3.83;;;7.30;99.90;;;;;;5129552;27;20087;-84
2022/01/17 08:46:11;;;;;;;26.30;4.30;;;7.30;99.90;;;;;;5104581;27;20508;-83
2022/01/17 08:48:39;;;;;;;30.27;4.60;;;7.40;99.90;;;;;;5087240;28;20090;-84
2022/01/17 08:51:05;;;;;;;27.13;4.07;;;7.40;99.90;;;;;;5097593;27;20212;-85
2022/01/17 08:53:32;;;;;;;30.83;4.70;;;7.40;99.90;;;;;;5086651;28;20506;-84
2022/01/17 08:55:58;;;;;;;34.95;4.97;;;7.50;99.90;;;;;;5094016;27;20031;-84
2022/01/17 08:58:23;;;;;;;29.48;3.88;;;7.50;99.90;;;;;;5116781;27;20038;-81
2022/01/17 09:00:50;;;;;;;28.92;4.70;;;7.60;99.90;;;;;;5116559;27;20058;-83
2022/01/17 09:03:16;;;;;;;31.75;5.60;;;7.60;99.90;;;;;;5116848;27;20035;-83
2022/01/17 09:05:42;;;;;;;26.92;4.13;;;7.60;99.90;;;;;;5115758;27;20567;-84
2022/01/17 09:08:11;;;;;;;32.92;5.00;;;7.70;99.90;;;;;;5099837;27;20072;-83
2022/01/17 09:10:38;;;;;;;29.63;4.47;;;7.80;99.90;;;;;;5099348;27;20041;-85
2022/01/17 09:13:04;;;;;;;27.70;4.45;;;7.80;99.90;;;;;;5118219;27;20495;-83
2022/01/17 09:15:30;;;;;;;25.80;4.32;;;7.90;99.90;;;;;;5124793;27;20035;-82
2022/01/17 09:17:56;;;;;;;33.13;5.22;;;7.90;99.90;;;;;;5099608;27;20439;-83
2022/01/17 09:20:22;;;;;;;27.05;4.30;;;7.90;99.90;;;;;;5118308;27;20035;-81
2022/01/17 09:22:47;;;;;;;25.30;5.00;;;7.90;99.90;;;;;;5108027;27;20029;-84
2022/01/17 09:25:13;;;;;;;30.67;5.07;;;7.90;99.90;;;;;;5129480;27;20084;-82
2022/01/17 09:27:39;;;;;;;35.33;5.72;;;7.90;99.90;;;;;;5115509;27;20095;-84
2022/01/17 09:30:08;;;;;;;32.00;4.93;;;8.00;99.90;;;;;;5098971;27;20039;-83
2022/01/17 09:32:33;;;;;;;27.55;4.55;;;8.00;99.90;;;;;;5114616;27;20049;-83
2022/01/17 09:34:59;;;;;;;29.17;4.57;;;8.00;99.90;;;;;;5114437;27;20043;-83
2022/01/17 09:37:24;;;;;;;35.38;5.13;;;8.00;99.90;;;;;;5115128;27;20042;-84
2022/01/17 09:39:50;;;;;;;32.67;4.63;;;8.00;99.90;;;;;;5098682;27;20042;-83
2022/01/17 09:42:15;;;;;;;32.05;5.03;;;8.00;99.90;;;;;;5097413;27;20039;-83
2022/01/17 09:44:41;;;;;;;30.70;5.18;;;8.00;99.90;;;;;;5116411;27;20041;-82
2022/01/17 09:47:08;;;;;;;40.25;4.90;;;8.00;99.90;;;;;;5099329;27;20039;-84
2022/01/17 09:49:43;;;;;;;36.15;5.68;;;8.10;99.90;;;;;;5117145;27;20027;-83
2022/01/17 09:54:43;;;;;;;39.67;5.25;;;8.10;99.90;;;;;;5115320;27;20501;-84
2022/01/17 09:57:11;;;;;;;27.30;5.28;;;8.20;99.90;;;;;;5118229;27;20134;-82
2022/01/17 09:59:39;;;;;;;32.13;5.15;;;8.30;99.90;;;;;;5116683;27;20048;-84
2022/01/17 10:02:06;;;;;;;34.08;5.15;;;8.30;99.90;;;;;;5132199;27;20107;-83
2022/01/17 10:04:34;;;;;;;34.67;5.78;;;8.40;99.90;;;;;;5124343;27;20083;-83
2022/01/17 10:07:01;;;;;;;29.17;5.43;;;8.40;99.90;;;;;;5119608;27;20101;-82
2022/01/17 10:09:28;;;;;;;36.17;5.85;;;8.40;99.90;;;;;;5119178;27;20055;-82
2022/01/17 10:12:05;;;;;;;27.65;4.53;;;8.40;99.90;;;;;;5114296;27;20035;-85
2022/01/17 10:14:36;;;;;;;31.63;5.03;;;8.50;99.90;;;;;;5114341;27;20420;-81
2022/01/17 10:17:04;;;;;;;34.50;5.63;;;8.50;99.90;;;;;;5108045;27;20047;-81
2022/01/17 10:19:29;;;;;;;33.20;5.78;;;8.60;99.90;;;;;;5113950;27;20034;-82
2022/01/17 10:21:57;;;;;;;34.38;5.30;;;8.60;99.90;;;;;;5110434;27;20035;-83
2022/01/17 10:27:15;;;;;;;34.35;5.85;;;8.50;99.90;;;;;;5115204;27;20050;-83
2022/01/17 10:30:15;;;;;;;45.63;7.32;;;8.50;99.90;;;;;;5115581;27;20523;-83
2022/01/17 10:35:28;;;;;;;33.88;5.25;;;8.80;99.90;;;;;;5114105;27;20103;-82
2022/01/17 10:38:08;;;;;;;35.03;6.32;;;8.80;99.90;;;;;;5113994;27;20042;-83
2022/01/17 10:40:42;;;;;;;38.67;5.72;;;8.70;99.90;;;;;;5099378;27;20039;-83
2022/01/17 10:43:25;;;;;;;37.92;6.25;;;8.50;99.90;;;;;;5114902;27;20047;-82
2022/01/17 10:45:51;;;;;;;38.28;7.30;;;8.50;99.90;;;;;;5114619;27;20043;-81
2022/01/17 10:48:16;;;;;;;37.42;6.15;;;8.50;99.90;;;;;;5114324;27;20046;-83
2022/01/17 10:50:45;;;;;;;43.13;6.30;;;8.50;99.90;;;;;;5116949;27;20031;-83
2022/01/17 10:53:13;;;;;;;41.90;6.90;;;8.60;99.90;;;;;;5114436;27;20393;-83
2022/01/17 10:55:51;;;;;;;40.03;6.75;;;8.60;99.90;;;;;;5120285;27;20511;-81
2022/01/17 10:58:23;;;;;;;43.03;8.00;;;8.60;99.90;;;;;;5116325;27;20488;-83
2022/01/17 11:00:51;;;;;;;36.38;5.95;;;8.70;99.90;;;;;;5113847;27;20047;-82
2022/01/17 11:03:19;;;;;;;34.80;6.75;;;8.60;99.90;;;;;;5120905;27;20034;-82
2022/01/17 11:05:47;;;;;;;38.70;5.65;;;8.60;99.90;;;;;;5113371;28;20042;-83
2022/01/17 11:08:16;;;;;;;43.47;6.07;;;8.70;99.90;;;;;;5123562;27;20074;-83
2022/01/17 11:10:44;;;;;;;40.30;6.25;;;8.80;99.90;;;;;;5114322;27;20111;-83
2022/01/17 11:13:12;;;;;;;35.15;5.88;;;8.90;99.90;;;;;;5114152;28;20055;-82
2022/01/17 11:15:40;;;;;;;47.55;7.45;;;8.90;99.90;;;;;;5122833;27;20413;-81
2022/01/17 11:18:22;;;;;;;43.55;7.35;;;8.90;99.90;;;;;;5124819;28;20093;-82
2022/01/17 11:20:50;;;;;;;39.85;6.20;;;8.90;99.90;;;;;;5099775;28;20031;-82
2022/01/17 11:23:17;;;;;;;40.70;6.28;;;8.90;99.90;;;;;;5114117;28;20429;-81
2022/01/17 11:25:45;;;;;;;46.20;7.10;;;8.90;99.90;;;;;;5114958;28;20066;-82
2022/01/17 11:28:14;;;;;;;44.30;7.05;;;9.00;99.90;;;;;;5117436;28;20088;-81
2022/01/17 11:30:40;;;;;;;45.38;7.80;;;9.00;99.90;;;;;;5105140;27;20130;-81
2022/01/17 11:33:08;;;;;;;47.53;8.52;;;9.10;99.90;;;;;;5130147;27;20039;-82
2022/01/17 11:35:37;;;;;;;42.90;7.72;;;9.20;99.90;;;;;;5106174;28;20035;-82
2022/01/17 11:38:04;;;;;;;45.95;7.47;;;9.20;99.90;;;;;;5102393;27;20027;-80
2022/01/17 11:40:35;;;;;;;46.78;8.82;;;9.20;99.90;;;;;;5099045;28;20027;-82
2022/01/17 11:43:33;;;;;;;41.38;10.52;;;9.20;99.90;;;;;;5094132;28;20063;-81
2022/01/17 11:46:21;;;;;;;51.33;9.90;;;9.20;99.90;;;;;;5092484;28;20039;-83
2022/01/17 11:49:08;;;;;;;40.90;6.60;;;9.20;99.90;;;;;;5107385;28;20027;-81
2022/01/17 11:51:35;;;;;;;43.00;7.60;;;9.20;99.90;;;;;;5103168;28;20059;-81
2022/01/17 11:54:16;;;;;;;39.15;7.30;;;9.30;99.90;;;;;;5105567;27;20035;-80
2022/01/17 11:56:56;;;;;;;44.50;6.80;;;9.30;99.90;;;;;;5090723;28;20413;-80
2022/01/17 11:59:39;;;;;;;37.33;6.72;;;9.30;99.90;;;;;;5099463;28;20032;-80
2022/01/17 12:02:25;;;;;;;35.55;6.93;;;9.30;99.90;;;;;;5091676;28;20155;-81
2022/01/17 12:05:11;;;;;;;39.22;6.00;;;9.20;99.90;;;;;;5100890;28;20087;-80
2022/01/17 12:07:42;;;;;;;47.63;7.55;;;9.20;99.90;;;;;;5115114;28;20039;-80
2022/01/17 12:10:09;;;;;;;35.95;6.35;;;9.20;99.90;;;;;;5097323;28;20519;-81
2022/01/17 12:12:35;;;;;;;40.28;6.75;;;9.20;99.90;;;;;;5118022;27;20089;-80
2022/01/17 12:15:05;;;;;;;40.88;6.63;;;9.30;99.90;;;;;;5115775;27;20039;-80
2022/01/17 12:17:32;;;;;;;45.45;7.88;;;9.30;99.90;;;;;;5114980;27;20092;-80
2022/01/17 12:20:04;;;;;;;33.95;7.38;;;9.30;99.90;;;;;;5096191;27;20047;-79
2022/01/17 12:22:31;;;;;;;39.80;7.38;;;9.30;99.90;;;;;;5105165;27;20042;-80
2022/01/17 12:24:57;;;;;;;42.15;7.00;;;9.30;99.90;;;;;;5100394;27;20046;-79
2022/01/17 12:27:25;;;;;;;40.97;6.80;;;9.20;99.90;;;;;;5115144;27;20039;-80
2022/01/17 12:29:52;;;;;;;32.17;6.47;;;9.20;99.90;;;;;;5090072;28;20051;-78
2022/01/17 12:32:40;;;;;;;42.47;7.68;;;9.20;99.90;;;;;;5108894;28;20552;-80
2022/01/17 12:35:07;;;;;;;43.85;6.70;;;9.10;99.90;;;;;;5105189;27;20066;-78
2022/01/17 12:37:42;;;;;;;35.10;6.32;;;9.00;99.90;;;;;;5087611;27;20031;-80
2022/01/17 12:40:11;;;;;;;41.85;7.45;;;9.00;99.90;;;;;;5089434;28;20059;-80
2022/01/17 12:43:04;;;;;;;43.35;7.55;;;8.90;99.90;;;;;;5111861;28;20123;-80
2022/01/17 12:45:41;;;;;;;44.27;6.70;;;8.90;99.90;;;;;;5091319;27;20039;-80
2022/01/17 12:48:16;;;;;;;46.25;7.75;;;8.90;99.90;;;;;;5098599;28;20051;-79
2022/01/17 12:50:43;;;;;;;43.10;7.05;;;9.00;99.90;;;;;;5098797;27;20484;-80
2022/01/17 12:53:12;;;;;;;48.38;9.32;;;9.00;99.90;;;;;;5118661;27;20082;-78
2022/01/17 12:55:40;;;;;;;42.33;7.70;;;8.90;99.90;;;;;;5100987;27;20527;-78
2022/01/17 12:58:30;;;;;;;39.90;7.53;;;9.00;99.90;;;;;;5116973;27;20031;-79
2022/01/17 13:01:00;;;;;;;45.95;7.18;;;8.90;99.90;;;;;;5108292;27;20100;-79
2022/01/17 13:03:29;;;;;;;54.88;7.00;;;8.90;99.90;;;;;;5115210;27;20035;-78
2022/01/17 13:05:56;;;;;;;40.63;7.07;;;8.90;99.90;;;;;;5111439;27;20039;-79
2022/01/17 13:08:24;;;;;;;49.60;8.90;;;8.90;99.90;;;;;;5111701;27;20047;-79
2022/01/17 13:10:52;;;;;;;40.15;7.10;;;8.90;99.90;;;;;;5093806;27;20057;-79
2022/01/17 13:13:18;;;;;;;46.53;9.02;;;9.00;99.90;;;;;;5108001;27;20042;-77
2022/01/17 13:15:55;;;;;;;45.22;7.68;;;9.00;99.90;;;;;;5125720;27;20067;-77